Аэропорт: Алматы. Алма-Ата

ICAO: UAAA

METAR:
2024-04-22 21:30:00
UAAA 222130Z 16002MPS 9999 FEW100 13/10 Q1014 NOSIG
TAF:
2024-04-22 17:00:00
TAF UAAA 221700Z 2218/2318 22003MPS 9999 SCT050CB BKN100 TX22/2310Z TN11/2300Z 
  TEMPO 2218/2300 17003MPS 3100 BR FU 
  BECMG 2301/2302 31003MPS 
  TEMPO 2306/2314 26004G12MPS 
  BECMG 2314/2316 17005MPS BKN040CB OVC100